createdAt,value
2019-03-05T00:01:58.317Z,4.40
2019-03-05T00:04:27.132Z,5.07
2019-03-05T00:06:55.834Z,2.67
2019-03-05T00:09:24.558Z,2.10
2019-03-05T00:11:53.237Z,2.30
2019-03-05T00:14:23.065Z,3.27
2019-03-05T00:16:51.761Z,3.13
2019-03-05T00:19:20.375Z,2.72
2019-03-05T00:21:49.105Z,2.67
2019-03-05T00:24:53.763Z,1.73
2019-03-05T00:27:22.414Z,2.00
2019-03-05T00:30:09.094Z,1.72
2019-03-05T00:32:37.799Z,1.83
2019-03-05T00:35:09.324Z,2.90
2019-03-05T00:37:40.949Z,1.17
2019-03-05T00:40:28.928Z,1.77
2019-03-05T00:43:03.475Z,1.60
2019-03-05T00:45:53.174Z,1.87
2019-03-05T00:48:27.591Z,1.23
2019-03-05T00:50:59.195Z,1.23
2019-03-05T00:53:33.832Z,1.43
2019-03-05T00:56:05.619Z,2.27
2019-03-05T00:58:42.807Z,0.90
2019-03-05T01:01:29.707Z,0.83
2019-03-05T01:04:28.334Z,2.10
2019-03-05T01:06:57.096Z,0.88
2019-03-05T01:09:26.218Z,1.20
2019-03-05T01:11:54.910Z,2.30
2019-03-05T01:14:25.203Z,2.40
2019-03-05T01:16:53.888Z,2.33
2019-03-05T01:19:22.608Z,2.22
2019-03-05T01:21:51.332Z,1.60
2019-03-05T01:24:20.281Z,1.75
2019-03-05T01:26:50.014Z,1.60
2019-03-05T01:29:18.629Z,1.50
2019-03-05T01:31:51.755Z,1.67
2019-03-05T01:34:31.097Z,1.37
2019-03-05T01:37:01.406Z,1.80
2019-03-05T01:39:43.658Z,1.47
2019-03-05T01:42:12.320Z,1.40
2019-03-05T01:44:41.010Z,1.43
2019-03-05T01:47:09.725Z,1.20
2019-03-05T01:49:38.426Z,1.43
2019-03-05T01:52:07.053Z,1.53
2019-03-05T01:54:35.776Z,2.00
2019-03-05T01:57:05.569Z,1.10
2019-03-05T01:59:34.236Z,1.57
2019-03-05T02:02:02.963Z,1.03
2019-03-05T02:04:31.639Z,1.77
2019-03-05T02:07:00.312Z,2.03
2019-03-05T02:09:29.021Z,1.07
2019-03-05T02:11:57.811Z,1.40
2019-03-05T02:14:26.555Z,1.43
2019-03-05T02:16:55.276Z,1.50
2019-03-05T02:19:37.416Z,0.68
2019-03-05T02:22:12.000Z,1.02
2019-03-05T02:25:07.289Z,1.00
2019-03-05T02:27:47.403Z,0.83
2019-03-05T02:30:39.638Z,2.90
2019-03-05T02:33:23.158Z,1.00
2019-03-05T02:36:06.680Z,1.07
2019-03-05T02:38:40.930Z,1.60
2019-03-05T02:41:12.586Z,1.37
2019-03-05T02:44:03.531Z,0.90
2019-03-05T02:46:55.862Z,1.20
2019-03-05T02:49:42.631Z,1.00
2019-03-05T02:52:42.853Z,2.27
2019-03-05T02:55:17.049Z,0.90
2019-03-05T02:57:44.557Z,1.27
2019-03-05T03:00:15.079Z,0.87
2019-03-05T03:02:48.340Z,0.57
2019-03-05T03:05:18.834Z,1.10
2019-03-05T03:07:47.662Z,1.93
2019-03-05T03:10:21.613Z,2.10
2019-03-05T03:12:50.322Z,0.77
2019-03-05T03:15:19.238Z,0.87
2019-03-05T03:17:48.027Z,2.53
2019-03-05T03:20:17.456Z,1.07
2019-03-05T03:22:46.130Z,1.10
2019-03-05T03:25:17.555Z,2.07
2019-03-05T03:27:46.409Z,1.60
2019-03-05T03:30:20.804Z,1.00
2019-03-05T03:32:49.414Z,1.83
2019-03-05T03:35:18.173Z,2.47
2019-03-05T03:37:46.947Z,1.62
2019-03-05T03:40:18.825Z,1.77
2019-03-05T03:42:47.634Z,2.57
2019-03-05T03:45:18.871Z,0.70
2019-03-05T03:47:47.642Z,1.80
2019-03-05T03:50:16.327Z,1.55
2019-03-05T03:52:45.074Z,1.87
2019-03-05T03:55:16.199Z,1.87
2019-03-05T03:57:44.905Z,2.03
2019-03-05T04:00:19.016Z,1.05
2019-03-05T04:02:47.661Z,1.00
2019-03-05T04:05:16.335Z,0.93
2019-03-05T04:07:45.027Z,2.20
2019-03-05T04:10:17.049Z,0.90
2019-03-05T04:12:45.750Z,0.80
2019-03-05T04:15:16.950Z,2.17
2019-03-05T04:17:45.728Z,2.57
2019-03-05T04:20:18.498Z,2.30
2019-03-05T04:22:47.061Z,0.80
2019-03-05T04:25:15.706Z,2.00
2019-03-05T04:27:44.354Z,2.67
2019-03-05T04:30:16.812Z,1.70
2019-03-05T04:32:45.388Z,1.10
2019-03-05T04:35:14.211Z,1.17
2019-03-05T04:37:42.903Z,0.60
2019-03-05T04:40:12.997Z,1.40
2019-03-05T04:42:41.631Z,0.63
2019-03-05T04:45:49.238Z,1.55
2019-03-05T04:48:17.858Z,1.13
2019-03-05T04:50:48.160Z,0.60
2019-03-05T04:53:16.855Z,0.60
2019-03-05T04:55:45.464Z,0.70
2019-03-05T04:58:14.141Z,0.40
2019-03-05T05:00:42.852Z,0.90
2019-03-05T05:03:11.532Z,0.40
2019-03-05T05:05:40.211Z,0.90
2019-03-05T05:08:08.846Z,0.60
2019-03-05T05:10:37.556Z,0.90
2019-03-05T05:13:06.285Z,1.17
2019-03-05T05:15:35.625Z,1.67
2019-03-05T05:18:05.298Z,1.35
2019-03-05T05:20:34.046Z,3.23
2019-03-05T05:23:02.612Z,0.63
2019-03-05T05:25:31.295Z,3.40
2019-03-05T05:27:59.964Z,1.67
2019-03-05T05:30:39.871Z,1.80
2019-03-05T05:33:09.374Z,1.50
2019-03-05T05:35:38.114Z,2.27
2019-03-05T05:38:06.797Z,3.90
2019-03-05T05:40:47.121Z,3.63
2019-03-05T05:43:19.823Z,1.37
2019-03-05T05:45:51.354Z,3.95
2019-03-05T05:48:20.192Z,2.53
2019-03-05T05:50:49.026Z,3.55
2019-03-05T05:53:18.303Z,2.73
2019-03-05T05:55:47.003Z,4.65
2019-03-05T05:58:16.513Z,7.33
2019-03-05T06:00:52.906Z,6.80
2019-03-05T06:03:22.681Z,7.90
2019-03-05T06:05:51.766Z,3.47
2019-03-05T06:08:21.388Z,3.83
2019-03-05T06:10:52.777Z,5.07
2019-03-05T06:13:20.596Z,3.90
2019-03-05T06:15:49.345Z,3.90
2019-03-05T06:18:17.922Z,2.73
2019-03-05T06:20:46.725Z,3.60
2019-03-05T06:23:15.559Z,1.67
2019-03-05T06:25:44.207Z,4.33
2019-03-05T06:28:12.883Z,3.52
2019-03-05T06:30:44.807Z,4.13
2019-03-05T06:33:13.639Z,0.88
2019-03-05T06:35:42.356Z,3.80
2019-03-05T06:38:11.052Z,4.57
2019-03-05T06:40:39.787Z,3.43
2019-03-05T06:43:08.454Z,4.50
2019-03-05T06:45:37.225Z,3.47
2019-03-05T06:48:05.923Z,4.20
2019-03-05T06:50:34.717Z,1.43
2019-03-05T06:53:03.462Z,5.67
2019-03-05T06:55:32.240Z,2.87
2019-03-05T06:58:00.876Z,3.70
2019-03-05T07:00:35.204Z,2.60
2019-03-05T07:03:06.193Z,2.83
2019-03-05T07:06:11.089Z,3.13
2019-03-05T07:08:42.679Z,2.75
2019-03-05T07:11:33.772Z,2.50
2019-03-05T07:14:11.262Z,3.57
2019-03-05T07:16:54.739Z,2.83
2019-03-05T07:19:26.259Z,2.17
2019-03-05T07:22:00.734Z,2.70
2019-03-05T07:24:48.811Z,2.90
2019-03-05T07:28:46.395Z,1.33
2019-03-05T07:31:15.106Z,3.65
2019-03-05T07:33:43.872Z,3.10
2019-03-05T07:36:12.672Z,3.77
2019-03-05T07:38:41.412Z,3.97
2019-03-05T07:41:10.156Z,2.85
2019-03-05T07:43:38.952Z,4.60
2019-03-05T07:46:07.688Z,2.30
2019-03-05T07:48:36.344Z,3.30
2019-03-05T07:51:05.242Z,4.00
2019-03-05T07:53:34.098Z,3.50
2019-03-05T07:56:02.845Z,4.27
2019-03-05T07:58:31.509Z,5.53
2019-03-05T08:01:00.248Z,3.20
2019-03-05T08:03:28.962Z,4.30
2019-03-05T08:05:57.831Z,2.80
2019-03-05T08:09:02.673Z,2.97
2019-03-05T08:11:31.927Z,2.50
2019-03-05T08:14:03.937Z,2.50
2019-03-05T08:16:32.695Z,3.47
2019-03-05T08:19:01.614Z,2.80
2019-03-05T08:21:30.347Z,4.40
2019-03-05T08:23:59.047Z,2.73
2019-03-05T08:26:27.783Z,4.30
2019-03-05T08:28:56.754Z,4.30
2019-03-05T08:31:25.437Z,3.80
2019-03-05T08:33:54.170Z,4.17
2019-03-05T08:36:23.016Z,2.93
2019-03-05T08:38:51.664Z,2.70
2019-03-05T08:41:20.401Z,3.15
2019-03-05T08:43:49.058Z,3.10
2019-03-05T08:46:17.756Z,3.27
2019-03-05T08:48:46.517Z,2.83
2019-03-05T08:51:15.200Z,3.20
2019-03-05T08:53:49.503Z,3.80
2019-03-05T08:56:14.419Z,4.93
2019-03-05T08:58:43.131Z,2.37
2019-03-05T09:01:11.883Z,3.30
2019-03-05T09:03:40.581Z,1.53
2019-03-05T09:06:09.409Z,2.10
2019-03-05T09:08:38.606Z,2.90
2019-03-05T09:11:08.319Z,3.30
2019-03-05T09:13:36.980Z,3.40
2019-03-05T09:16:05.811Z,3.17
2019-03-05T09:18:34.477Z,3.67
2019-03-05T09:21:03.231Z,2.87
2019-03-05T09:23:31.874Z,1.90
2019-03-05T09:26:00.591Z,2.87
2019-03-05T09:28:29.324Z,2.67
2019-03-05T09:30:58.173Z,2.57
2019-03-05T09:33:26.854Z,1.90
2019-03-05T09:35:55.574Z,2.07
2019-03-05T09:38:24.953Z,1.77
2019-03-05T09:40:53.610Z,3.47
2019-03-05T09:43:22.353Z,2.57
2019-03-05T09:45:51.045Z,1.97
2019-03-05T09:48:19.882Z,2.40
2019-03-05T09:50:48.532Z,3.30
2019-03-05T09:53:17.157Z,2.67
2019-03-05T09:55:45.833Z,1.22
2019-03-05T09:58:14.540Z,1.87
2019-03-05T10:00:43.280Z,2.87
2019-03-05T10:03:12.035Z,2.20
2019-03-05T10:05:40.762Z,1.40
2019-03-05T10:08:10.530Z,1.10
2019-03-05T10:10:39.163Z,2.63
2019-03-05T10:13:08.140Z,2.80
2019-03-05T10:15:36.871Z,2.42
2019-03-05T10:18:12.612Z,2.80
2019-03-05T10:20:36.955Z,2.60
2019-03-05T10:23:06.307Z,2.17
2019-03-05T10:25:35.041Z,2.47
2019-03-05T10:28:03.785Z,3.20
2019-03-05T10:30:38.063Z,3.40
2019-03-05T10:33:08.363Z,2.85
2019-03-05T10:35:37.227Z,3.08
2019-03-05T10:38:07.682Z,2.90
2019-03-05T10:40:47.458Z,3.60
2019-03-05T10:43:19.151Z,3.00
2019-03-05T10:45:49.471Z,1.93
2019-03-05T10:48:23.158Z,2.85
2019-03-05T10:50:52.421Z,2.35
2019-03-05T10:53:22.010Z,2.65
2019-03-05T10:55:50.671Z,1.03
2019-03-05T10:58:19.484Z,2.10
2019-03-05T11:00:53.916Z,1.47
2019-03-05T11:03:25.212Z,3.40
2019-03-05T11:05:54.246Z,2.30
2019-03-05T11:08:25.245Z,2.52
2019-03-05T11:10:54.870Z,2.58
2019-03-05T11:13:23.715Z,1.93
2019-03-05T11:15:58.199Z,1.87
2019-03-05T11:18:29.647Z,2.10
2019-03-05T11:20:57.404Z,2.60
2019-03-05T11:23:26.100Z,2.27
2019-03-05T11:25:54.863Z,2.10
2019-03-05T11:28:23.596Z,2.50
2019-03-05T11:30:52.486Z,2.27
2019-03-05T11:33:22.210Z,2.60
2019-03-05T11:35:51.826Z,2.00
2019-03-05T11:38:20.870Z,2.63
2019-03-05T11:40:49.474Z,2.07
2019-03-05T11:43:18.630Z,3.00
2019-03-05T11:45:47.332Z,2.17
2019-03-05T11:48:17.043Z,2.30
2019-03-05T11:50:45.999Z,2.60
2019-03-05T11:53:14.850Z,2.75
2019-03-05T11:55:43.508Z,2.40
2019-03-05T11:58:12.302Z,3.90
2019-03-05T12:00:52.082Z,2.50
2019-03-05T12:03:20.948Z,2.52
2019-03-05T12:05:56.905Z,2.60
2019-03-05T12:08:25.798Z,2.37
2019-03-05T12:10:54.481Z,2.50
2019-03-05T12:13:23.112Z,2.43
2019-03-05T12:15:51.841Z,2.80
2019-03-05T12:18:20.495Z,1.53
2019-03-05T12:20:49.177Z,2.97
2019-03-05T12:23:17.885Z,1.23
2019-03-05T12:25:46.581Z,1.50
2019-03-05T12:28:15.990Z,2.27
2019-03-05T12:30:53.883Z,2.47
2019-03-05T12:33:22.733Z,1.70
2019-03-05T12:35:51.694Z,2.87
2019-03-05T12:38:20.356Z,2.08
2019-03-05T12:40:49.087Z,2.43
2019-03-05T12:43:17.818Z,2.20
2019-03-05T12:45:47.425Z,1.40
2019-03-05T12:48:16.122Z,1.17
2019-03-05T12:50:44.831Z,1.47
2019-03-05T12:53:15.953Z,1.03
2019-03-05T12:55:44.158Z,1.83
2019-03-05T12:58:12.997Z,1.00
2019-03-05T13:00:41.731Z,1.20
2019-03-05T13:03:10.590Z,1.12
2019-03-05T13:05:39.331Z,1.60
2019-03-05T13:08:08.065Z,1.20
2019-03-05T13:10:37.670Z,1.10
2019-03-05T13:13:06.723Z,1.40
2019-03-05T13:15:38.133Z,1.80
2019-03-05T13:18:06.881Z,1.70
2019-03-05T13:20:35.663Z,1.90
2019-03-05T13:23:09.526Z,2.33
2019-03-05T13:25:38.175Z,2.00
2019-03-05T13:28:06.484Z,2.40
2019-03-05T13:30:35.354Z,1.62
2019-03-05T13:33:05.110Z,2.65
2019-03-05T13:35:33.858Z,1.65
2019-03-05T13:38:07.657Z,2.40
2019-03-05T13:40:38.527Z,3.20
2019-03-05T13:43:07.220Z,1.93
2019-03-05T13:45:36.166Z,1.43
2019-03-05T13:48:19.512Z,1.13
2019-03-05T13:51:11.723Z,0.93
2019-03-05T13:54:09.315Z,1.10
2019-03-05T13:56:42.382Z,2.47
2019-03-05T13:59:21.235Z,1.43
2019-03-05T14:01:49.928Z,1.07
2019-03-05T14:04:39.531Z,1.63
2019-03-05T14:07:11.841Z,1.40
2019-03-05T14:09:39.360Z,2.07
2019-03-05T14:12:08.004Z,1.87
2019-03-05T14:14:36.711Z,1.13
2019-03-05T14:17:10.317Z,1.20
2019-03-05T14:19:39.139Z,1.87
2019-03-05T14:22:07.915Z,2.30
2019-03-05T14:24:36.560Z,0.90
2019-03-05T14:27:05.469Z,1.30
2019-03-05T14:29:34.190Z,0.97
2019-03-05T14:32:02.954Z,1.10
2019-03-05T14:34:31.754Z,2.20
2019-03-05T14:37:00.527Z,1.33
2019-03-05T14:39:32.717Z,1.20
2019-03-05T14:42:02.634Z,1.07
2019-03-05T14:44:39.859Z,1.00
2019-03-05T14:47:04.623Z,0.90
2019-03-05T14:49:33.435Z,1.63
2019-03-05T14:52:02.080Z,1.35
2019-03-05T14:54:30.795Z,1.23
2019-03-05T14:56:59.552Z,1.30
2019-03-05T14:59:28.381Z,0.90
2019-03-05T15:01:57.169Z,1.63
2019-03-05T15:04:26.085Z,1.70
2019-03-05T15:06:55.024Z,1.87
2019-03-05T15:09:23.819Z,1.60
2019-03-05T15:11:52.492Z,1.00
2019-03-05T15:14:21.208Z,1.83
2019-03-05T15:16:49.919Z,1.90
2019-03-05T15:19:21.741Z,1.00
2019-03-05T15:21:49.161Z,1.30
2019-03-05T15:24:17.927Z,0.80
2019-03-05T15:26:46.690Z,1.00
2019-03-05T15:29:15.492Z,2.13
2019-03-05T15:31:44.228Z,0.90
2019-03-05T15:34:12.946Z,1.00
2019-03-05T15:36:41.791Z,1.20
2019-03-05T15:39:10.721Z,0.97
2019-03-05T15:41:39.532Z,1.60
2019-03-05T15:44:10.504Z,1.17
2019-03-05T15:46:39.388Z,0.87
2019-03-05T15:49:08.196Z,1.13
2019-03-05T15:51:37.121Z,2.00
2019-03-05T15:54:05.914Z,1.43
2019-03-05T15:56:34.651Z,1.40
2019-03-05T15:59:03.467Z,1.70
2019-03-05T16:01:32.609Z,1.00
2019-03-05T16:04:01.385Z,1.30
2019-03-05T16:06:33.736Z,0.60
2019-03-05T16:09:02.246Z,0.50
2019-03-05T16:11:34.082Z,1.23
2019-03-05T16:14:01.457Z,1.33
2019-03-05T16:16:30.319Z,1.10
2019-03-05T16:18:59.109Z,1.50
2019-03-05T16:21:27.873Z,0.93
2019-03-05T16:23:56.701Z,2.00
2019-03-05T16:26:25.506Z,1.27
2019-03-05T16:28:54.456Z,1.23
2019-03-05T16:31:24.836Z,1.50
2019-03-05T16:34:13.144Z,1.03
2019-03-05T16:36:42.296Z,1.00
2019-03-05T16:39:16.612Z,1.73
2019-03-05T16:41:46.937Z,1.07
2019-03-05T16:44:36.075Z,0.80
2019-03-05T16:47:22.977Z,1.57
2019-03-05T16:49:53.300Z,1.00
2019-03-05T16:52:39.641Z,1.90
2019-03-05T16:55:28.491Z,1.30
2019-03-05T16:58:01.762Z,1.40
2019-03-05T17:00:48.771Z,1.77
2019-03-05T17:03:19.139Z,1.55
2019-03-05T17:06:05.796Z,1.50
2019-03-05T17:08:39.155Z,1.10
2019-03-05T17:11:19.304Z,1.17
2019-03-05T17:13:51.449Z,1.07
2019-03-05T17:16:29.891Z,1.50
2019-03-05T17:18:58.899Z,1.60
2019-03-05T17:21:28.119Z,1.52
2019-03-05T17:23:58.896Z,1.40
2019-03-05T17:26:28.537Z,1.43
2019-03-05T17:28:59.177Z,1.70
2019-03-05T17:31:28.515Z,1.20
2019-03-05T17:33:58.084Z,1.30
2019-03-05T17:36:26.853Z,1.27
2019-03-05T17:38:58.603Z,1.30
2019-03-05T17:41:28.284Z,1.30
2019-03-05T17:43:59.863Z,1.57
2019-03-05T17:46:35.939Z,1.77
2019-03-05T17:49:08.179Z,1.20
2019-03-05T17:51:40.652Z,1.23
2019-03-05T17:54:11.696Z,2.77
2019-03-05T17:56:43.051Z,1.83
2019-03-05T17:59:12.709Z,1.60
2019-03-05T18:01:43.250Z,1.50
2019-03-05T18:04:15.544Z,1.87
2019-03-05T18:06:49.531Z,1.70
2019-03-05T18:09:18.675Z,1.30
2019-03-05T18:11:47.394Z,1.90
2019-03-05T18:14:16.131Z,1.60
2019-03-05T18:16:45.005Z,2.17
2019-03-05T18:19:13.665Z,2.10
2019-03-05T18:21:42.560Z,1.67
2019-03-05T18:24:11.287Z,1.50
2019-03-05T18:26:44.246Z,1.40
2019-03-05T18:29:13.109Z,1.47
2019-03-05T18:31:41.889Z,1.37
2019-03-05T18:34:10.601Z,1.10
2019-03-05T18:36:39.362Z,1.47
2019-03-05T18:39:09.123Z,1.72
2019-03-05T18:41:37.798Z,0.90
2019-03-05T18:44:06.471Z,1.40
2019-03-05T18:46:35.365Z,1.97
2019-03-05T18:49:04.925Z,1.05
2019-03-05T18:51:33.572Z,1.03
2019-03-05T18:54:02.195Z,1.07
2019-03-05T18:56:31.004Z,1.65
2019-03-05T18:58:59.673Z,1.17
2019-03-05T19:01:28.475Z,1.60
2019-03-05T19:03:57.131Z,1.10
2019-03-05T19:06:25.896Z,1.27
2019-03-05T19:08:54.719Z,1.37
2019-03-05T19:11:23.625Z,1.13
2019-03-05T19:13:52.277Z,1.10
2019-03-05T19:16:21.063Z,1.52
2019-03-05T19:18:49.620Z,1.60
2019-03-05T19:21:18.533Z,1.53
2019-03-05T19:23:47.239Z,1.90
2019-03-05T19:26:16.009Z,1.50
2019-03-05T19:28:44.840Z,1.30
2019-03-05T19:31:13.764Z,1.40
2019-03-05T19:33:43.779Z,1.53
2019-03-05T19:36:12.725Z,1.40
2019-03-05T19:38:41.478Z,1.67
2019-03-05T19:41:10.392Z,1.77
2019-03-05T19:43:39.459Z,1.33
2019-03-05T19:46:08.531Z,1.75
2019-03-05T19:48:37.536Z,1.93
2019-03-05T19:51:06.570Z,1.90
2019-03-05T19:53:35.577Z,1.63
2019-03-05T19:56:05.500Z,2.02
2019-03-05T19:58:34.391Z,2.00
2019-03-05T20:01:04.820Z,1.50
2019-03-05T20:03:34.036Z,2.07
2019-03-05T20:06:03.140Z,1.63
2019-03-05T20:08:39.479Z,1.40
2019-03-05T20:11:02.880Z,1.70
2019-03-05T20:13:52.837Z,1.80
2019-03-05T20:16:22.231Z,1.97
2019-03-05T20:18:51.492Z,1.60
2019-03-05T20:21:20.458Z,1.95
2019-03-05T20:23:49.438Z,1.70
2019-03-05T20:26:18.459Z,1.93
2019-03-05T20:28:47.342Z,2.00
2019-03-05T20:31:16.643Z,2.25
2019-03-05T20:33:45.499Z,2.07
2019-03-05T20:36:14.406Z,2.77
2019-03-05T20:38:44.400Z,2.70
2019-03-05T20:41:14.033Z,2.80
2019-03-05T20:43:43.954Z,2.98
2019-03-05T20:46:15.577Z,2.63
2019-03-05T20:48:48.224Z,2.80
2019-03-05T20:51:16.927Z,1.73
2019-03-05T20:53:45.760Z,2.33
2019-03-05T20:56:14.708Z,1.93
2019-03-05T20:58:43.391Z,1.63
2019-03-05T21:01:12.211Z,2.60
2019-03-05T21:03:41.008Z,3.20
2019-03-05T21:06:09.805Z,2.30
2019-03-05T21:08:38.722Z,2.17
2019-03-05T21:11:07.482Z,2.80
2019-03-05T21:13:36.238Z,2.60
2019-03-05T21:16:05.657Z,2.50
2019-03-05T21:18:34.462Z,2.70
2019-03-05T21:21:03.505Z,2.47
2019-03-05T21:23:32.571Z,2.07
2019-03-05T21:26:01.689Z,2.20
2019-03-05T21:28:31.024Z,2.07
2019-03-05T21:31:00.571Z,2.90
2019-03-05T21:33:29.350Z,3.10
2019-03-05T21:35:57.999Z,2.95
2019-03-05T21:38:26.688Z,2.43
2019-03-05T21:40:55.461Z,3.35
2019-03-05T21:43:24.148Z,3.30
2019-03-05T21:45:56.084Z,3.00
2019-03-05T21:48:24.835Z,2.63
2019-03-05T21:50:53.538Z,2.57
2019-03-05T21:53:22.285Z,3.70
2019-03-05T21:55:50.948Z,3.90
2019-03-05T21:58:20.503Z,3.83
2019-03-05T22:00:49.149Z,4.17
2019-03-05T22:03:17.883Z,5.42
2019-03-05T22:05:46.635Z,4.53
2019-03-05T22:08:15.398Z,5.37
2019-03-05T22:10:44.104Z,6.00
2019-03-05T22:13:12.841Z,6.33
2019-03-05T22:15:42.663Z,6.80
2019-03-05T22:18:11.503Z,8.00
2019-03-05T22:20:40.255Z,7.80
2019-03-05T22:23:08.991Z,7.17
2019-03-05T22:25:37.793Z,7.00
2019-03-05T22:28:06.591Z,6.77
2019-03-05T22:30:37.871Z,6.33
2019-03-05T22:33:06.931Z,6.97
2019-03-05T22:35:35.672Z,6.80
2019-03-05T22:38:05.267Z,7.73
2019-03-05T22:40:34.038Z,7.10
2019-03-05T22:43:02.713Z,9.75
2019-03-05T22:45:35.252Z,8.87
2019-03-05T22:48:04.066Z,7.40
2019-03-05T22:50:32.786Z,8.17
2019-03-05T22:53:01.435Z,7.80
2019-03-05T22:55:30.160Z,7.37
2019-03-05T22:57:58.988Z,6.90
2019-03-05T23:00:44.083Z,6.78
2019-03-05T23:03:18.463Z,6.33
2019-03-05T23:05:49.015Z,6.60
2019-03-05T23:08:18.660Z,6.80
2019-03-05T23:10:48.288Z,6.33
2019-03-05T23:13:19.288Z,6.45
2019-03-05T23:15:48.023Z,6.00
2019-03-05T23:18:16.954Z,6.05
2019-03-05T23:20:45.630Z,5.60
2019-03-05T23:23:14.399Z,5.27
2019-03-05T23:25:43.163Z,5.20
2019-03-05T23:28:11.892Z,5.22
2019-03-05T23:30:41.048Z,5.13
2019-03-05T23:33:09.775Z,4.57
2019-03-05T23:35:38.504Z,4.33
2019-03-05T23:38:07.308Z,4.50
2019-03-05T23:40:36.836Z,4.30
2019-03-05T23:43:06.577Z,4.00
2019-03-05T23:45:35.941Z,5.23
2019-03-05T23:48:05.038Z,4.77
2019-03-05T23:50:33.904Z,4.07
2019-03-05T23:53:02.646Z,4.87
2019-03-05T23:55:31.441Z,4.33
2019-03-05T23:58:00.091Z,3.60
